Terminal Aerodrome Forecast
Issued by NWS

Home | Current Version | Previous Version | Text Only | Print | Product List | Glossary On
Versions: 1 2 3 4 5 6 7 8 9 10 11 12 13 14 15 16 17 18 19 20 21 22 23 24 25 26 27 28 29 30 31 32 33
000
FTUS45 KVEF 252326
TAFLAS
TAF
KLAS 252326Z 2600/2706 10011KT P6SM FEW060 SCT150 BKN200
     FM260300 16009KT P6SM SCT120 BKN200
     FM260400 20010KT P6SM SCT120 SCT250
     FM261000 VRB06KT P6SM SCT120 SCT250
     FM261500 09009KT P6SM SCT120 BKN250
     FM262000 16010KT P6SM SCT120 BKN250
     FM270500 22010KT P6SM SCT120 SCT250=

USA.gov is the U.S. government's official web portal to all federal, state and local government web resources and services.